Time;durP1;ratioP1;P1;durP2;ratioP2;P2;SDS_P1;SDS_P2;PMS_P1;PMS_P2;Temp;Humidity;BMP_temperature;BMP_pressure;BME280_temperature;BME280_humidity;BME280_pressure;Samples;Min_cycle;Max_cycle;Signal;HPM_P1;HPM_P2
2022/01/18 00:02:59;;;;;;;4.82;2.67;;;;;;;4.19;53.96;97860.94;10412565;28;20494;-59
2022/01/18 00:07:58;;;;;;;;;;;;;;;4.20;54.32;97843.00;10413445;28;20059;-59
2022/01/18 00:23:02;;;;;;;;;;;;;;;4.08;51.92;97863.25;10413510;28;20060;-57
2022/01/18 00:28:03;;;;;;;5.30;2.80;;;;;;;4.02;53.20;97860.50;10412786;28;19942;-57
2022/01/18 00:38:11;;;;;;;5.95;3.47;;;;;;;3.89;55.12;97948.28;10412597;28;20135;-57
2022/01/18 00:43:10;;;;;;;7.60;4.17;;;;;;;2.53;70.98;98005.56;10412231;28;20067;-57
2022/01/18 00:48:09;;;;;;;8.25;5.10;;;;;;;1.85;73.33;98011.66;10411883;28;20279;-57
2022/01/18 00:53:12;;;;;;;7.97;5.25;;;;;;;1.62;74.12;98019.38;10411662;28;20024;-57
2022/01/18 00:58:11;;;;;;;5.95;3.00;;;;;;;1.27;72.97;98000.97;10412437;28;20056;-59
2022/01/18 01:03:10;;;;;;;4.40;1.90;;;;;;;0.91;66.43;98000.34;10410745;28;20119;-59
2022/01/18 01:08:09;;;;;;;3.45;2.17;;;;;;;1.15;59.99;98012.38;10414810;28;20067;-60
2022/01/18 01:13:09;;;;;;;2.33;1.40;;;;;;;1.23;54.91;98032.31;10420111;28;20017;-59
2022/01/18 01:18:21;;;;;;;4.85;2.55;;;;;;;1.03;52.31;97974.41;10419778;28;20060;-60
2022/01/18 01:49:14;;;;;;;8.80;4.20;;;;;;;1.78;42.18;98037.84;10418665;28;20060;-60
2022/01/18 01:54:14;;;;;;;3.67;2.30;;;;;;;1.44;44.37;98039.09;10418215;28;20468;-60
2022/01/18 01:59:13;;;;;;;3.28;2.15;;;;;;;1.23;44.61;98040.00;10416974;28;20060;-60
2022/01/18 02:04:13;;;;;;;5.00;2.25;;;;;;;1.02;44.44;98039.13;10418555;28;20056;-59
2022/01/18 02:09:13;;;;;;;5.30;1.73;;;;;;;0.94;44.32;98040.47;10417569;28;20060;-60
2022/01/18 02:14:18;;;;;;;1.80;1.23;;;;;;;0.75;44.61;98069.50;10417502;28;20844;-60
2022/01/18 02:24:34;;;;;;;6.68;3.25;;;;;;;0.60;44.00;98106.34;10417184;28;20064;-59
2022/01/18 02:29:33;;;;;;;3.88;2.70;;;;;;;0.55;44.25;98117.19;10417251;28;20025;-60
2022/01/18 02:34:33;;;;;;;7.43;3.22;;;;;;;0.53;43.74;98150.28;10416739;28;20060;-60
2022/01/18 02:39:32;;;;;;;9.27;3.97;;;;;;;0.55;43.85;98175.91;10416805;28;20064;-59
2022/01/18 02:44:33;;;;;;;5.45;3.33;;;;;;;0.54;43.45;98190.31;10416240;28;20066;-60
2022/01/18 02:49:33;;;;;;;1.65;1.13;;;;;;;0.35;42.14;98198.81;10415550;28;20551;-60
2022/01/18 02:54:31;;;;;;;6.53;3.28;;;;;;;0.51;43.86;98194.44;10416570;28;20059;-59
2022/01/18 02:59:46;;;;;;;4.68;2.42;;;;;;;0.45;42.73;98188.25;10415483;28;20055;-60
2022/01/18 03:04:48;;;;;;;5.43;2.92;;;;;;;0.31;42.36;98188.41;10415236;28;20060;-60
2022/01/18 03:09:47;;;;;;;4.38;2.10;;;;;;;0.47;41.95;98224.03;10415823;28;20064;-60
2022/01/18 03:14:46;;;;;;;14.82;8.05;;;;;;;0.47;42.53;98221.50;10414797;28;20107;-60
2022/01/18 03:19:45;;;;;;;6.68;3.90;;;;;;;0.44;42.81;98229.88;10415156;28;20028;-59
2022/01/18 03:29:46;;;;;;;5.40;3.00;;;;;;;0.23;41.94;98251.88;10413479;28;20063;-59
2022/01/18 03:34:45;;;;;;;3.58;1.90;;;;;;;0.12;43.10;98258.13;10414056;28;20052;-59
2022/01/18 03:39:44;;;;;;;13.75;6.10;;;;;;;0.36;41.92;98266.97;10414596;28;20388;-60
2022/01/18 03:44:44;;;;;;;11.25;6.68;;;;;;;0.30;42.15;98279.44;10413925;28;20028;-60
2022/01/18 03:49:43;;;;;;;9.65;3.83;;;;;;;0.18;42.67;98305.25;10413009;28;20491;-60
2022/01/18 03:54:47;;;;;;;5.22;2.97;;;;;;;0.10;43.08;98309.13;10413901;28;20475;-60
2022/01/18 03:59:46;;;;;;;6.00;2.92;;;;;;;0.11;42.87;98330.41;10413325;28;20059;-60
2022/01/18 04:04:46;;;;;;;18.08;8.85;;;;;;;0.23;42.89;98328.44;10412691;28;20058;-60
2022/01/18 04:09:45;;;;;;;4.13;2.65;;;;;;;0.09;42.08;98332.00;10413224;28;20056;-60
2022/01/18 04:14:44;;;;;;;17.50;7.53;;;;;;;0.09;42.70;98298.81;10412708;28;20403;-60
2022/01/18 04:30:05;;;;;;;16.55;7.47;;;;;;;-0.09;43.42;98320.06;10411910;28;20059;-60
2022/01/18 04:35:05;;;;;;;11.35;6.13;;;;;;;0.03;44.55;98366.63;10412079;28;20495;-60
2022/01/18 04:40:11;;;;;;;14.90;8.10;;;;;;;-0.19;45.65;98386.72;10413116;28;20055;-60
2022/01/18 04:50:28;;;;;;;19.52;7.43;;;;;;;-0.03;44.05;98409.66;10411828;28;20057;-60
2022/01/18 04:55:31;;;;;;;19.25;9.35;;;;;;;-0.20;43.95;98390.09;10411932;28;20024;-60
2022/01/18 05:00:30;;;;;;;13.25;4.97;;;;;;;-0.05;44.24;98418.91;10411876;28;20060;-60
2022/01/18 05:05:33;;;;;;;10.75;4.75;;;;;;;-0.08;44.55;98387.28;10410620;28;20138;-60
2022/01/18 05:10:32;;;;;;;12.88;5.78;;;;;;;-0.07;43.40;98429.84;10410828;28;20075;-60
2022/01/18 05:15:42;;;;;;;5.65;2.90;;;;;;;-0.01;43.14;98441.25;10409972;28;20075;-60
2022/01/18 05:21:13;;;;;;;17.55;9.40;;;;;;;-0.12;43.73;98442.34;10411129;28;20055;-60
2022/01/18 05:26:12;;;;;;;13.15;7.60;;;;;;;0.07;43.97;98472.25;10410698;28;20079;-60
2022/01/18 05:31:11;;;;;;;15.13;7.82;;;;;;;0.05;44.44;98481.50;10411189;28;20388;-60
2022/01/18 05:36:10;;;;;;;11.75;5.93;;;;;;;-0.15;44.02;98485.56;10411071;28;20506;-60
2022/01/18 05:41:10;;;;;;;25.92;13.02;;;;;;;-0.15;45.17;98493.22;10392660;28;20063;-60
2022/01/18 05:46:10;;;;;;;14.38;6.13;;;;;;;-0.31;46.25;98470.25;10415337;28;20076;-60
2022/01/18 05:51:09;;;;;;;;;;;;;;;-0.32;46.70;98499.09;10409981;28;20067;-60
2022/01/18 05:56:11;;;;;;;13.45;8.30;;;;;;;-0.48;46.20;98493.19;10415617;28;19962;-59
2022/01/18 06:01:14;;;;;;;13.80;6.90;;;;;;;-0.49;46.92;98505.84;10416495;28;20052;-59
2022/01/18 06:11:30;;;;;;;17.77;9.48;;;;;;;-0.62;47.47;98524.69;10417568;28;20614;-60
2022/01/18 06:16:29;;;;;;;16.83;8.80;;;;;;;-0.61;47.34;98531.53;10417220;28;20486;-60
2022/01/18 06:21:28;;;;;;;19.98;9.73;;;;;;;-0.61;47.31;98536.63;10417084;28;20476;-59
2022/01/18 06:26:27;;;;;;;17.23;11.40;;;;;;;-0.58;46.55;98557.19;10416883;28;20482;-60
2022/01/18 06:31:26;;;;;;;19.90;11.07;;;;;;;-0.49;46.94;98573.00;10418552;28;20024;-60
2022/01/18 06:36:25;;;;;;;13.90;8.50;;;;;;;-0.41;47.45;98576.84;10420529;28;20060;-60
2022/01/18 06:41:24;;;;;;;12.40;6.93;;;;;;;-0.36;46.36;98579.66;10440965;28;20032;-60
2022/01/18 06:46:23;;;;;;;27.80;15.88;;;;;;;-0.30;47.45;98589.31;10458363;28;20472;-60
2022/01/18 06:51:22;;;;;;;33.28;18.98;;;;;;;-0.36;47.93;98589.88;10448785;28;20023;-60
2022/01/18 06:56:21;;;;;;;37.55;21.52;;;;;;;-0.32;49.13;98593.44;10423998;28;20475;-60
2022/01/18 07:01:21;;;;;;;34.05;17.35;;;;;;;-0.48;46.11;98601.94;10411351;28;20085;-60
2022/01/18 07:06:20;;;;;;;23.38;11.65;;;;;;;-0.19;45.96;98608.63;10414607;28;20044;-60
2022/01/18 07:11:20;;;;;;;12.52;6.88;;;;;;;0.00;45.68;98598.63;10411317;28;20056;-60
2022/01/18 07:16:20;;;;;;;33.65;16.73;;;;;;;-0.16;46.52;98574.00;10412394;28;20060;-60
2022/01/18 07:21:19;;;;;;;20.63;11.70;;;;;;;-0.03;46.20;98621.44;10411411;28;20063;-60
2022/01/18 07:26:18;;;;;;;9.10;4.60;;;;;;;0.12;43.82;98623.94;10412945;28;20071;-60
2022/01/18 07:31:17;;;;;;;13.38;7.20;;;;;;;0.21;43.05;98623.56;10414558;28;20052;-61
2022/01/18 07:36:15;;;;;;;5.65;2.78;;;;;;;0.43;42.66;98635.81;10414460;28;20128;-60
2022/01/18 07:41:14;;;;;;;8.82;4.07;;;;;;;0.61;42.49;98635.88;10408405;28;20035;-60
2022/01/18 07:46:13;;;;;;;6.57;3.40;;;;;;;0.61;42.24;98595.88;10414496;28;20028;-60
2022/01/18 07:51:13;;;;;;;11.30;6.18;;;;;;;0.84;43.54;98652.41;10406786;28;20037;-60
2022/01/18 07:56:12;;;;;;;9.55;5.22;;;;;;;0.89;43.94;98636.50;10413513;28;20064;-60
2022/01/18 08:01:11;;;;;;;8.00;3.83;;;;;;;1.01;43.50;98632.81;10413767;28;20059;-60
2022/01/18 08:06:10;;;;;;;6.10;3.72;;;;;;;1.04;43.56;98631.31;10438638;28;20039;-60
2022/01/18 08:11:09;;;;;;;11.57;6.35;;;;;;;1.11;43.88;98641.03;10455114;28;20043;-60
2022/01/18 08:17:00;;;;;;;10.73;5.35;;;;;;;1.28;43.69;98639.31;10423374;28;20040;-60
2022/01/18 08:21:30;;;;;;;9.25;4.38;;;;;;;1.32;42.55;98666.78;10406033;28;20060;-60
2022/01/18 08:26:29;;;;;;;;;;;;;;;1.30;42.72;98665.84;10411413;28;20071;-60
2022/01/18 08:31:28;;;;;;;20.05;7.35;;;;;;;1.33;41.14;98681.31;10406758;28;19958;-60
2022/01/18 08:36:27;;;;;;;17.98;8.55;;;;;;;1.37;40.86;98684.06;10411568;28;20029;-60
2022/01/18 08:41:27;;;;;;;7.38;4.00;;;;;;;1.66;40.86;98694.03;10389047;28;20035;-60
2022/01/18 08:46:26;;;;;;;16.98;7.97;;;;;;;1.88;40.34;98693.41;10412743;28;20067;-60
2022/01/18 08:51:25;;;;;;;7.10;3.17;;;;;;;2.09;40.03;98692.66;10412084;28;20032;-60
2022/01/18 08:56:24;;;;;;;20.15;10.45;;;;;;;2.13;39.78;98700.56;10410944;28;20078;-59
2022/01/18 09:01:23;;;;;;;14.90;7.93;;;;;;;2.28;39.22;98689.31;10411878;28;20059;-60
2022/01/18 09:06:24;;;;;;;6.72;3.40;;;;;;;2.28;38.48;98650.88;10412159;28;20064;-60
2022/01/18 09:11:24;;;;;;;9.15;4.40;;;;;;;2.70;38.70;98686.91;10411916;28;20075;-59
2022/01/18 09:16:23;;;;;;;6.90;4.05;;;;;;;2.53;38.12;98653.72;10411560;28;20071;-60
2022/01/18 09:21:23;;;;;;;6.95;3.53;;;;;;;2.79;38.75;98674.53;10411383;28;20028;-59
2022/01/18 09:26:22;;;;;;;;;;;;;;;2.92;39.54;98670.81;10412493;28;20067;-60
2022/01/18 09:31:21;;;;;;;11.98;3.90;;;;;;;2.98;39.13;98666.84;10417840;28;20031;-60
2022/01/18 09:36:20;;;;;;;6.30;3.85;;;;;;;3.10;38.51;98666.50;10419453;28;20067;-59
2022/01/18 09:41:22;;;;;;;6.30;3.10;;;;;;;3.16;38.29;98663.31;10418481;28;20029;-60
2022/01/18 09:46:24;;;;;;;4.90;2.28;;;;;;;3.24;38.35;98669.66;10417943;28;20072;-60
2022/01/18 09:51:24;;;;;;;5.63;2.97;;;;;;;3.29;38.56;98650.19;10417761;28;20075;-59
2022/01/18 09:56:24;;;;;;;6.20;2.42;;;;;;;3.46;37.49;98650.03;10418808;28;20519;-60
2022/01/18 10:01:23;;;;;;;4.68;2.20;;;;;;;3.54;36.80;98638.38;10418052;28;20067;-60
2022/01/18 10:06:22;;;;;;;2.90;1.92;;;;;;;3.55;36.08;98629.88;10417134;28;20554;-60
2022/01/18 10:11:22;;;;;;;;;;;;;;;3.67;35.93;98620.09;10418937;28;20064;-60
2022/01/18 10:16:23;;;;;;;7.22;2.65;;;;;;;3.70;35.82;98625.34;10418013;28;19951;-60
2022/01/18 10:21:22;;;;;;;4.53;2.33;;;;;;;3.71;34.92;98632.25;10415832;28;20339;-60
2022/01/18 10:26:24;;;;;;;22.75;9.15;;;;;;;3.55;34.55;98612.78;10416478;28;20262;-60
2022/01/18 10:31:40;;;;;;;7.50;4.40;;;;;;;3.44;33.54;98627.72;10416436;28;20074;-60
2022/01/18 10:37:02;;;;;;;5.07;2.60;;;;;;;3.31;33.90;98622.94;10417040;28;20507;-60
2022/01/18 10:42:14;;;;;;;6.40;3.78;;;;;;;3.41;33.50;98622.50;10417093;28;20072;-60
2022/01/18 10:47:15;;;;;;;9.75;3.83;;;;;;;3.63;34.25;98602.81;10416669;28;20098;-60
2022/01/18 10:52:21;;;;;;;7.38;3.17;;;;;;;3.70;33.34;98598.81;10416064;28;20491;-60
2022/01/18 10:57:23;;;;;;;6.97;3.13;;;;;;;3.57;33.03;98589.75;10427589;28;20055;-57
2022/01/18 11:02:22;;;;;;;4.35;2.38;;;;;;;3.25;34.43;98568.81;10457539;28;20067;-59
2022/01/18 11:07:26;;;;;;;16.17;8.88;;;;;;;3.56;33.56;98590.56;10457205;28;20500;-60
2022/01/18 11:12:28;;;;;;;7.90;3.92;;;;;;;3.48;30.79;98581.69;10451459;28;20071;-60
2022/01/18 11:17:27;;;;;;;5.20;2.25;;;;;;;3.44;30.50;98581.56;10456209;28;20071;-60
2022/01/18 11:22:26;;;;;;;6.97;2.85;;;;;;;3.47;31.31;98570.53;10457198;28;20475;-60
2022/01/18 11:27:28;;;;;;;6.15;2.03;;;;;;;3.50;30.11;98585.19;10456871;28;20074;-60
2022/01/18 11:32:28;;;;;;;8.07;2.58;;;;;;;3.69;31.17;98589.38;10456119;28;20602;-60
2022/01/18 11:37:57;;;;;;;11.75;5.18;;;;;;;3.69;31.45;98584.25;10456135;28;20070;-60
2022/01/18 11:42:57;;;;;;;8.75;4.32;;;;;;;3.68;31.04;98564.50;10401318;28;20071;-60
2022/01/18 11:48:13;;;;;;;10.35;4.82;;;;;;;3.79;31.28;98556.41;10456527;28;20138;-60
2022/01/18 11:54:05;;;;;;;7.10;3.42;;;;;;;3.90;31.10;98566.22;10455188;28;20074;-60
2022/01/18 11:59:16;;;;;;;4.80;2.90;;;;;;;3.66;30.37;98567.03;10454716;28;20508;-60
2022/01/18 12:04:53;;;;;;;11.50;5.68;;;;;;;3.81;30.24;98566.75;10455356;28;20066;-60
2022/01/18 12:09:52;;;;;;;7.07;2.78;;;;;;;3.73;29.00;98565.56;10455390;28;20067;-60
2022/01/18 12:14:51;;;;;;;10.15;6.22;;;;;;;3.70;31.61;98542.34;10455333;28;20095;-59
2022/01/18 12:19:50;;;;;;;9.27;4.93;;;;;;;3.64;32.37;98543.00;10454885;28;20063;-59
2022/01/18 12:25:28;;;;;;;17.05;8.68;;;;;;;3.71;32.45;98550.13;10454852;28;20107;-59
2022/01/18 12:30:54;;;;;;;17.92;11.55;;;;;;;3.83;31.70;98558.28;10453929;28;20502;-59
2022/01/18 12:36:26;;;;;;;17.50;9.73;;;;;;;3.92;33.12;98552.63;10453323;28;20589;-59
2022/01/18 12:41:47;;;;;;;8.75;3.88;;;;;;;4.04;36.09;98560.78;10454194;28;20064;-60
2022/01/18 12:46:53;;;;;;;10.00;5.60;;;;;;;4.23;39.54;98557.22;10453727;28;20496;-60
2022/01/18 12:51:57;;;;;;;11.60;5.22;;;;;;;4.51;39.17;98573.63;10453360;28;20533;-60
2022/01/18 12:56:56;;;;;;;10.63;5.28;;;;;;;4.64;39.48;98577.50;10453796;28;20519;-60
2022/01/18 13:01:55;;;;;;;18.35;9.85;;;;;;;4.60;39.05;98579.09;10452998;28;20499;-60
2022/01/18 13:06:56;;;;;;;31.58;14.13;;;;;;;4.37;39.43;98590.25;10453189;28;20062;-59
2022/01/18 13:12:03;;;;;;;122.90;53.70;;;;;;;4.44;39.11;98592.22;10452614;28;20060;-59
2022/01/18 13:23:25;;;;;;;14.90;8.18;;;;;;;4.02;39.82;98597.50;10453597;28;20063;-59
2022/01/18 13:27:51;;;;;;;10.13;5.35;;;;;;;3.84;40.13;98592.53;10439390;28;20068;-60
2022/01/18 13:32:51;;;;;;;17.17;10.68;;;;;;;3.98;41.12;98608.47;10451161;28;20079;-60
2022/01/18 13:37:51;;;;;;;11.18;5.55;;;;;;;3.96;40.14;98617.81;10448893;28;20075;-59
2022/01/18 13:43:05;;;;;;;8.05;4.43;;;;;;;3.61;39.16;98614.72;10435733;28;20063;-59
2022/01/18 13:48:08;;;;;;;12.00;6.13;;;;;;;3.06;39.13;98628.72;10449120;28;20056;-59
2022/01/18 13:53:07;;;;;;;8.95;4.22;;;;;;;2.81;40.81;98637.03;10450697;28;20068;-59
2022/01/18 13:58:06;;;;;;;16.98;10.45;;;;;;;2.66;40.28;98610.75;10452292;28;20028;-59
2022/01/18 14:03:05;;;;;;;16.33;9.52;;;;;;;2.96;41.83;98645.38;10449246;28;20066;-59
2022/01/18 14:08:10;;;;;;;17.52;10.32;;;;;;;2.79;40.73;98651.44;10433757;28;20047;-58
2022/01/18 14:13:26;;;;;;;15.30;7.10;;;;;;;2.47;40.62;98650.91;10452098;28;20067;-59
2022/01/18 14:18:25;;;;;;;13.40;6.88;;;;;;;2.34;41.50;98657.13;10459243;28;20511;-59
2022/01/18 14:23:24;;;;;;;18.25;9.60;;;;;;;2.19;41.38;98661.56;10457384;28;20425;-58
2022/01/18 14:28:29;;;;;;;12.57;6.13;;;;;;;2.05;41.37;98681.41;10458562;28;20072;-58
2022/01/18 14:33:28;;;;;;;13.18;7.57;;;;;;;1.96;42.04;98671.59;10459060;28;20126;-58
2022/01/18 14:38:28;;;;;;;10.98;6.10;;;;;;;1.84;43.40;98677.84;10458964;28;20024;-59
2022/01/18 14:43:29;;;;;;;13.85;7.03;;;;;;;1.69;44.58;98691.63;10459041;28;20470;-59
2022/01/18 14:48:31;;;;;;;15.73;7.70;;;;;;;1.56;44.65;98693.53;10458303;28;20072;-58
2022/01/18 14:53:30;;;;;;;13.23;6.65;;;;;;;1.50;44.54;98699.19;10457960;28;20067;-60
2022/01/18 14:58:29;;;;;;;18.52;8.90;;;;;;;1.40;43.27;98702.09;10458035;28;20474;-60
2022/01/18 15:03:28;;;;;;;19.65;8.15;;;;;;;1.30;44.56;98711.88;10457757;28;20384;-60
2022/01/18 15:08:27;;;;;;;13.13;8.05;;;;;;;1.19;44.89;98717.22;10454371;28;20070;-58
2022/01/18 15:13:26;;;;;;;18.65;8.70;;;;;;;1.11;44.66;98719.41;10457350;28;20059;-58
2022/01/18 15:18:27;;;;;;;26.35;15.23;;;;;;;1.24;44.78;98723.44;10457531;28;20064;-58
2022/01/18 15:23:26;;;;;;;17.20;10.38;;;;;;;1.14;44.97;98729.78;10456955;28;20071;-58
2022/01/18 15:28:25;;;;;;;26.35;14.07;;;;;;;1.14;45.58;98739.13;10456112;28;20067;-58
2022/01/18 15:33:24;;;;;;;40.33;19.25;;;;;;;1.02;45.58;98765.81;10456524;28;20048;-60
2022/01/18 15:38:23;;;;;;;26.23;13.38;;;;;;;0.87;45.97;98765.88;10456269;28;20111;-60
2022/01/18 15:43:24;;;;;;;31.30;16.73;;;;;;;0.76;45.95;98781.44;10455543;28;20068;-60
2022/01/18 15:48:23;;;;;;;25.88;14.52;;;;;;;0.64;46.45;98791.88;10453972;28;20071;-60
2022/01/18 15:53:22;;;;;;;97.20;40.95;;;;;;;0.53;46.47;98787.84;10442812;28;20451;-58
2022/01/18 15:58:21;;;;;;;43.85;22.92;;;;;;;0.50;46.87;98790.19;10414140;28;20092;-58
2022/01/18 16:03:20;;;;;;;42.25;24.13;;;;;;;0.43;47.40;98791.56;10414245;28;20465;-58
2022/01/18 16:08:19;;;;;;;62.88;35.80;;;;;;;0.42;47.60;98794.88;10413470;28;20403;-59
2022/01/18 16:13:18;;;;;;;21.77;13.82;;;;;;;0.30;47.11;98797.63;10413648;28;20028;-58
2022/01/18 16:18:17;;;;;;;26.33;15.95;;;;;;;0.28;46.94;98806.88;10395421;28;20115;-58
2022/01/18 16:23:16;;;;;;;26.23;13.68;;;;;;;0.22;47.13;98806.56;10396773;28;20122;-58
2022/01/18 16:28:15;;;;;;;35.40;16.23;;;;;;;0.13;47.36;98817.13;10417931;28;20068;-58
2022/01/18 16:33:14;;;;;;;46.03;28.40;;;;;;;-0.03;48.70;98805.16;10425963;28;20080;-58
2022/01/18 16:38:14;;;;;;;73.32;43.03;;;;;;;-0.15;49.23;98809.56;10427708;28;20031;-59
2022/01/18 16:43:12;;;;;;;62.55;35.00;;;;;;;-0.34;49.37;98812.69;10431322;28;20071;-59
2022/01/18 16:48:13;;;;;;;52.92;33.83;;;;;;;-0.51;50.21;98803.16;10423015;28;20526;-59
2022/01/18 16:53:13;;;;;;;55.17;31.27;;;;;;;-0.53;49.81;98807.28;10415358;28;20082;-58
2022/01/18 16:58:12;;;;;;;31.33;17.90;;;;;;;-0.72;49.87;98808.75;10412440;28;20575;-59
2022/01/18 17:03:12;;;;;;;26.98;12.70;;;;;;;-0.78;49.12;98830.44;10411190;28;20043;-59
2022/01/18 17:08:12;;;;;;;39.00;19.15;;;;;;;-0.97;48.77;98814.03;10419848;28;20067;-59
2022/01/18 17:13:13;;;;;;;25.10;14.23;;;;;;;-0.92;48.38;98835.56;10417753;28;20071;-59
2022/01/18 17:18:12;;;;;;;33.03;19.98;;;;;;;-0.98;48.75;98837.72;10442284;28;20575;-59
2022/01/18 17:23:11;;;;;;;47.25;21.77;;;;;;;-1.10;49.94;98859.91;10437889;28;20072;-59
2022/01/18 17:28:10;;;;;;;28.60;14.85;;;;;;;-1.12;49.82;98874.19;10438602;28;20042;-59
2022/01/18 17:33:09;;;;;;;17.00;8.60;;;;;;;-1.12;50.32;98889.47;10423555;28;20080;-59
2022/01/18 17:38:08;;;;;;;35.22;17.48;;;;;;;-1.14;50.08;98891.06;10410688;28;20496;-59
2022/01/18 17:43:07;;;;;;;27.50;13.75;;;;;;;-1.17;50.20;98904.47;10367832;28;20395;-59
2022/01/18 17:48:06;;;;;;;40.20;19.25;;;;;;;-1.38;51.62;98893.81;10331915;28;20087;-59
2022/01/18 17:53:06;;;;;;;24.15;14.15;;;;;;;-1.30;49.93;98915.56;10359186;28;20073;-60
2022/01/18 17:58:05;;;;;;;;;;;;;;;-1.19;49.26;98916.22;10374039;28;20072;-59
2022/01/18 18:03:04;;;;;;;26.98;15.75;;;;;;;-1.17;49.11;98912.13;10376451;28;19956;-59
2022/01/18 18:08:04;;;;;;;30.52;18.52;;;;;;;-1.07;49.00;98932.31;10376787;28;20061;-59
2022/01/18 18:13:03;;;;;;;32.55;18.77;;;;;;;-1.13;49.31;98943.78;10376423;28;20061;-59
2022/01/18 18:18:03;;;;;;;25.17;15.60;;;;;;;-1.10;48.63;98956.69;10353206;28;20497;-59
2022/01/18 18:23:02;;;;;;;;;;;;;;;-1.04;49.40;98952.00;10335210;28;20072;-59
2022/01/18 18:28:02;;;;;;;26.70;13.90;;;;;;;-1.07;48.67;98952.69;10335453;28;19908;-61
2022/01/18 18:33:02;;;;;;;24.08;13.95;;;;;;;-1.12;48.80;98961.69;10347678;28;20080;-59
2022/01/18 18:38:01;;;;;;;16.85;8.52;;;;;;;-1.22;48.38;98967.84;10378629;28;20099;-60
2022/01/18 18:43:16;;;;;;;17.25;9.20;;;;;;;-1.13;48.02;98977.75;10415543;28;20088;-61
2022/01/18 18:48:15;;;;;;;49.65;25.20;;;;;;;-1.16;48.39;98987.75;10452587;28;20072;-60
2022/01/18 18:53:14;;;;;;;30.17;16.52;;;;;;;-1.09;49.09;98989.03;10457829;28;20075;-61
2022/01/18 18:58:19;;;;;;;30.30;16.25;;;;;;;-1.16;48.95;98981.78;10457127;28;20075;-59
2022/01/18 19:03:25;;;;;;;29.40;16.90;;;;;;;-1.24;50.04;98994.00;10454296;28;20068;-59
2022/01/18 19:08:29;;;;;;;32.60;18.88;;;;;;;-1.39;50.20;99008.28;10453895;28;20082;-59
2022/01/18 19:13:31;;;;;;;32.45;17.90;;;;;;;-1.54;51.59;99008.16;10448941;28;20068;-59
2022/01/18 19:18:31;;;;;;;41.28;22.38;;;;;;;-1.64;50.54;98997.34;10414700;28;20075;-59
2022/01/18 19:23:31;;;;;;;41.58;24.65;;;;;;;-1.69;51.01;98998.72;10413132;28;20500;-59
2022/01/18 19:28:30;;;;;;;43.50;23.10;;;;;;;-1.74;51.11;98984.81;10414321;28;20064;-59
2022/01/18 19:33:30;;;;;;;45.97;25.98;;;;;;;-1.75;51.62;99005.03;10414086;28;20191;-59
2022/01/18 19:38:29;;;;;;;54.53;28.55;;;;;;;-1.80;51.79;99009.81;10414160;28;20072;-59
2022/01/18 19:43:28;;;;;;;61.13;32.28;;;;;;;-1.99;51.74;98986.47;10396513;28;20072;-59
2022/01/18 19:48:30;;;;;;;61.88;35.03;;;;;;;-1.86;52.13;99027.25;10413254;28;20060;-59
2022/01/18 19:53:29;;;;;;;39.33;20.70;;;;;;;-1.99;52.13;99034.78;10413432;28;20084;-59
2022/01/18 19:58:28;;;;;;;46.03;27.00;;;;;;;-1.97;52.70;99021.41;10414314;28;20071;-59
2022/01/18 20:03:28;;;;;;;43.28;26.00;;;;;;;-2.02;52.26;99004.06;10337470;28;20041;-59
2022/01/18 20:08:28;;;;;;;65.72;41.47;;;;;;;-1.91;52.78;99026.94;10371919;28;20508;-59
2022/01/18 20:13:28;;;;;;;68.20;36.35;;;;;;;-1.80;52.72;99019.13;10371466;28;20068;-59
2022/01/18 20:18:27;;;;;;;59.20;28.08;;;;;;;-1.85;52.78;99011.19;10371817;28;20065;-59
2022/01/18 20:23:26;;;;;;;49.28;25.10;;;;;;;-1.91;52.59;99020.97;10371951;28;20032;-59
2022/01/18 20:28:28;;;;;;;41.00;22.95;;;;;;;-2.03;53.16;99013.38;10370691;28;20041;-59
2022/01/18 20:33:29;;;;;;;43.88;23.63;;;;;;;-2.24;53.85;99028.03;10383929;28;20511;-59
2022/01/18 20:38:28;;;;;;;53.33;33.45;;;;;;;-2.18;53.62;99055.53;10411992;28;20064;-59
2022/01/18 20:43:36;;;;;;;46.20;27.80;;;;;;;-2.16;54.28;99069.25;10411878;28;20040;-59
2022/01/18 20:48:38;;;;;;;67.18;37.20;;;;;;;-2.20;54.62;99073.22;10410160;28;20103;-59
2022/01/18 20:53:37;;;;;;;65.22;36.83;;;;;;;-2.30;55.20;99070.81;10411657;28;20060;-59
2022/01/18 20:58:36;;;;;;;;;;;;;;;-2.40;55.77;99065.88;10412274;28;20506;-59
2022/01/18 21:03:35;;;;;;;70.30;40.45;;;;;;;-2.69;55.96;99044.31;10411412;28;19944;-59
2022/01/18 21:08:34;;;;;;;68.97;39.90;;;;;;;-2.54;56.57;99101.34;10411097;28;20068;-59
2022/01/18 21:13:34;;;;;;;65.85;37.17;;;;;;;-2.60;57.04;99095.81;10411908;28;20071;-59
2022/01/18 21:18:33;;;;;;;63.25;34.63;;;;;;;-2.68;57.95;99107.09;10411425;28;20072;-59
2022/01/18 21:23:31;;;;;;;44.13;26.30;;;;;;;-2.76;58.15;99103.97;10411919;28;20028;-59
2022/01/18 21:28:30;;;;;;;46.83;24.60;;;;;;;-2.79;58.54;99091.06;10417820;28;20522;-59
2022/01/18 21:33:29;;;;;;;33.45;16.88;;;;;;;-2.80;58.84;99090.97;10419776;28;20510;-59
2022/01/18 21:38:28;;;;;;;26.98;13.82;;;;;;;-2.81;59.13;99079.03;10419345;28;20037;-58
2022/01/18 21:43:27;;;;;;;20.38;10.30;;;;;;;-2.88;58.85;99066.66;10417345;28;20461;-58
2022/01/18 21:48:27;;;;;;;33.65;15.50;;;;;;;-2.72;58.34;99075.47;10419389;28;20147;-59
2022/01/18 21:53:26;;;;;;;35.45;17.95;;;;;;;-2.73;58.54;99081.34;10418022;28;20060;-59
2022/01/18 21:58:25;;;;;;;29.35;15.27;;;;;;;-2.64;58.12;99063.34;10418323;28;20063;-58
2022/01/18 22:03:24;;;;;;;28.80;15.60;;;;;;;-2.66;58.04;99051.28;10418521;28;20071;-58
2022/01/18 22:08:23;;;;;;;30.77;15.38;;;;;;;-2.64;58.14;99042.13;10417908;28;20068;-59
2022/01/18 22:13:22;;;;;;;27.95;14.23;;;;;;;-2.68;58.18;99056.28;10413016;28;20028;-58
2022/01/18 22:18:21;;;;;;;26.90;14.70;;;;;;;-2.52;57.59;99061.69;10417926;28;20417;-59
2022/01/18 22:23:20;;;;;;;43.60;20.95;;;;;;;-2.55;57.60;99068.19;10417228;28;20067;-59
2022/01/18 22:28:20;;;;;;;47.65;22.83;;;;;;;-2.50;57.49;99085.53;10417572;28;20068;-59
2022/01/18 22:33:18;;;;;;;51.30;24.65;;;;;;;-2.60;58.04;99075.47;10416772;28;20087;-59
2022/01/18 22:38:19;;;;;;;57.30;32.70;;;;;;;-2.82;58.45;99064.56;10416896;28;20028;-59
2022/01/18 22:43:18;;;;;;;123.22;47.80;;;;;;;-2.86;59.46;99071.06;10416366;28;20071;-59
2022/01/18 22:48:17;;;;;;;89.18;41.80;;;;;;;-2.91;59.92;99063.09;10450000;28;20047;-59
2022/01/18 22:53:16;;;;;;;70.22;35.08;;;;;;;-2.96;60.32;99074.59;10457514;28;20462;-59
2022/01/18 22:58:15;;;;;;;;;;;;;;;-3.04;60.36;99075.69;10455066;28;20075;-59
2022/01/18 23:03:14;;;;;;;26.42;14.80;;;;;;;-3.14;59.84;99069.03;10455629;28;20390;-59
2022/01/18 23:08:13;;;;;;;30.48;15.63;;;;;;;-3.19;59.47;99059.31;10454099;28;20071;-59
2022/01/18 23:13:14;;;;;;;45.70;23.58;;;;;;;-3.26;59.75;99064.72;10454163;28;20040;-59
2022/01/18 23:18:13;;;;;;;55.13;29.08;;;;;;;-3.31;60.58;99076.19;10422780;28;20072;-59
2022/01/18 23:23:12;;;;;;;51.28;25.95;;;;;;;-3.40;60.83;99072.19;10414883;28;20107;-59
2022/01/18 23:28:12;;;;;;;53.85;25.63;;;;;;;-3.47;61.05;99089.38;10415356;28;20075;-59
2022/01/18 23:33:11;;;;;;;43.28;23.17;;;;;;;-3.52;61.55;99083.97;10413516;28;20072;-59
2022/01/18 23:38:22;;;;;;;39.20;21.08;;;;;;;-3.57;61.48;99090.34;10427721;28;20110;-59
2022/01/18 23:43:21;;;;;;;39.85;20.17;;;;;;;-3.63;61.96;99100.03;10455051;28;20068;-59
2022/01/18 23:48:20;;;;;;;37.38;21.02;;;;;;;-3.71;62.06;99106.19;10429971;28;20068;-59
2022/01/18 23:53:19;;;;;;;42.13;23.83;;;;;;;-3.77;62.68;99121.78;10413409;28;20033;-59
2022/01/18 23:58:20;;;;;;;;;;;;;;;-4.12;63.78;99069.25;10414285;28;20490;-59
